| time (UTC) | temp F | wind direction | speed MPH | gust MPH | rain 1hr in | rain 24hr in | rain mn in | humidity % | barometer mb |
| 20260504231540 | 77 | 0 | 0.0 | 2.0 | 0.00 | 0.00 | 0.00 | 59 | 1015.1 |
| 20260504231025 | 78 | 339 | 0.0 | 4.0 | 0.00 | 0.00 | 0.00 | 58 | 1015.0 |
| 20260504230524 | 78 | 329 | 1.0 | 4.0 | 0.00 | 0.00 | 0.00 | 58 | 1015.0 |
| 20260504230040 | 78 | 326 | 1.0 | 3.0 | 0.00 | 0.00 | 0.00 | 58 | 1015.0 |
| 20260504225522 | 78 | 0 | 1.0 | 4.0 | 0.00 | 0.00 | 0.00 | 58 | 1015.1 |
| 20260504225025 | 78 | 332 | 2.0 | 4.0 | 0.00 | 0.00 | 0.00 | 56 | 1015.2 |
| 20260504224538 | 79 | 323 | 1.0 | 4.0 | 0.00 | 0.00 | 0.00 | 56 | 1015.1 |
| 20260504224021 | 79 | 320 | 1.0 | 3.0 | 0.00 | 0.00 | 0.00 | 56 | 1015.3 |
| 20260504223525 | 80 | 321 | 1.0 | 3.0 | 0.00 | 0.00 | 0.00 | 56 | 1015.2 |
| 20260504223037 | 80 | 331 | 1.0 | 3.0 | 0.00 | 0.00 | 0.00 | 55 | 1015.1 |
| 20260504222525 | 80 | 313 | 0.0 | 4.0 | 0.00 | 0.00 | 0.00 | 55 | 1015.1 |
| 20260504222023 | 80 | 323 | 1.0 | 4.0 | 0.00 | 0.00 | 0.00 | 55 | 1015.1 |
| 20260504221542 | 80 | 0 | 0.0 | 3.0 | 0.00 | 0.00 | 0.00 | 55 | 1015.3 |
| 20260504221022 | 80 | 325 | 0.0 | 4.0 | 0.00 | 0.00 | 0.00 | 54 | 1015.2 |
| 20260504220522 | 79 | 331 | 0.0 | 4.0 | 0.00 | 0.00 | 0.00 | 55 | 1015.4 |
| 20260504220040 | 80 | 329 | 2.0 | 5.0 | 0.00 | 0.00 | 0.00 | 54 | 1015.3 |
| 20260504215525 | 80 | 290 | 2.0 | 5.0 | 0.00 | 0.00 | 0.00 | 53 | 1015.2 |
| 20260504215022 | 80 | 325 | 2.0 | 5.0 | 0.00 | 0.00 | 0.00 | 54 | 1015.1 |
| 20260504214536 | 81 | 344 | 2.0 | 4.0 | 0.00 | 0.00 | 0.00 | 53 | 1015.0 |
| 20260504214024 | 81 | 309 | 2.0 | 4.0 | 0.00 | 0.00 | 0.00 | 52 | 1015.2 |
| 20260504213522 | 83 | 323 | 1.0 | 4.0 | 0.00 | 0.00 | 0.00 | 49 | 1015.1 |
| 20260504213038 | 84 | 336 | 1.0 | 3.0 | 0.00 | 0.00 | 0.00 | 47 | 1015.1 |
| 20260504212522 | 84 | 316 | 0.0 | 4.0 | 0.00 | 0.00 | 0.00 | 46 | 1015.0 |
| 20260504212024 | 85 | 331 | 1.0 | 4.0 | 0.00 | 0.00 | 0.00 | 46 | 1015.1 |
| 20260504211537 | 85 | 0 | 0.0 | 7.0 | 0.00 | 0.00 | 0.00 | 44 | 1015.1 |
| 20260504211022 | 85 | 0 | 0.0 | 8.0 | 0.00 | 0.00 | 0.00 | 33 | 1015.2 |
| 20260504210522 | 86 | 134 | 2.0 | 8.0 | 0.00 | 0.00 | 0.00 | 32 | 1015.2 |
| 20260504210053 | 86 | 194 | 1.0 | 7.0 | 0.00 | 0.00 | 0.00 | 32 | 1015.2 |
| 20260504205521 | 86 | 128 | 2.0 | 7.0 | 0.00 | 0.00 | 0.00 | 33 | 1015.3 |
| 20260504205022 | 87 | 142 | 0.0 | 4.0 | 0.00 | 0.00 | 0.00 | 33 | 1015.3 |
| 20260504204553 | 87 | 17 | 1.0 | 9.0 | 0.00 | 0.00 | 0.00 | 33 | 1015.2 |
| 20260504204022 | 87 | 71 | 3.0 | 9.0 | 0.00 | 0.00 | 0.00 | 32 | 1015.4 |
| 20260504203522 | 87 | 120 | 4.0 | 9.0 | 0.00 | 0.00 | 0.00 | 32 | 1015.4 |
| 20260504203044 | 88 | 88 | 3.0 | 7.0 | 0.00 | 0.00 | 0.00 | 33 | 1015.4 |
| 20260504202522 | 88 | 0 | 0.0 | 10.0 | 0.00 | 0.00 | 0.00 | 31 | 1015.4 |
| 20260504202022 | 88 | 88 | 2.0 | 10.0 | 0.00 | 0.00 | 0.00 | 33 | 1015.4 |
| 20260504201539 | 88 | 92 | 3.0 | 9.0 | 0.00 | 0.00 | 0.00 | 33 | 1015.4 |
| 20260504201021 | 88 | 83 | 1.0 | 8.0 | 0.00 | 0.00 | 0.00 | 33 | 1015.4 |
| 20260504200522 | 88 | 57 | 2.0 | 8.0 | 0.00 | 0.00 | 0.00 | 34 | 1015.5 |
| 20260504200037 | 88 | 107 | 2.0 | 7.0 | 0.00 | 0.00 | 0.00 | 34 | 1015.5 |
| 20260504195526 | 87 | 69 | 1.0 | 7.0 | 0.00 | 0.00 | 0.00 | 34 | 1015.7 |
| 20260504195022 | 87 | 87 | 2.0 | 12.0 | 0.00 | 0.00 | 0.00 | 34 | 1015.7 |
| 20260504194537 | 87 | 152 | 4.0 | 12.0 | 0.00 | 0.00 | 0.00 | 34 | 1015.9 |
| 20260504194023 | 88 | 65 | 4.0 | 11.0 | 0.00 | 0.00 | 0.00 | 33 | 1016.0 |
| 20260504193525 | 88 | 96 | 3.0 | 8.0 | 0.00 | 0.00 | 0.00 | 34 | 1016.0 |
| 20260504193037 | 88 | 46 | 2.0 | 9.0 | 0.00 | 0.00 | 0.00 | 33 | 1016.0 |
| 20260504192521 | 88 | 123 | 3.0 | 9.0 | 0.00 | 0.00 | 0.00 | 34 | 1016.2 |
| 20260504192022 | 88 | 74 | 2.0 | 8.0 | 0.00 | 0.00 | 0.00 | 35 | 1016.3 |
| 20260504191541 | 88 | 42 | 2.0 | 6.0 | 0.00 | 0.00 | 0.00 | 35 | 1016.3 |
| 20260504191025 | 88 | 0 | 2.0 | 5.0 | 0.00 | 0.00 | 0.00 | 34 | 1016.3 |
| 20260504190522 | 87 | 150 | 1.0 | 8.0 | 0.00 | 0.00 | 0.00 | 34 | 1016.3 |
| 20260504190042 | 87 | 17 | 2.0 | 9.0 | 0.00 | 0.00 | 0.00 | 35 | 1016.5 |
| 20260504185521 | 87 | 0 | 2.0 | 10.0 | 0.00 | 0.00 | 0.00 | 35 | 1016.4 |
| 20260504185022 | 87 | 53 | 2.0 | 10.0 | 0.00 | 0.00 | 0.00 | 36 | 1016.7 |
| 20260504184540 | 87 | 139 | 2.0 | 11.0 | 0.00 | 0.00 | 0.00 | 35 | 1017.0 |
| 20260504184022 | 88 | 155 | 5.0 | 11.0 | 0.00 | 0.00 | 0.00 | 35 | 1016.8 |
| 20260504183524 | 88 | 0 | 0.0 | 7.0 | 0.00 | 0.00 | 0.00 | 35 | 1016.9 |
| 20260504183038 | 88 | 0 | 0.0 | 8.0 | 0.00 | 0.00 | 0.00 | 34 | 1017.1 |
| 20260504182521 | 88 | 153 | 2.0 | 8.0 | 0.00 | 0.00 | 0.00 | 33 | 1017.3 |
| 20260504182021 | 88 | 96 | 2.0 | 7.0 | 0.00 | 0.00 | 0.00 | 35 | 1017.2 |
| 20260504181539 | 88 | 29 | 0.0 | 8.0 | 0.00 | 0.00 | 0.00 | 33 | 1017.4 |
| 20260504181024 | 87 | 0 | 2.0 | 8.0 | 0.00 | 0.00 | 0.00 | 35 | 1017.4 |
| 20260504180521 | 87 | 124 | 2.0 | 8.0 | 0.00 | 0.00 | 0.00 | 36 | 1017.6 |
| 20260504180036 | 87 | 360 | 3.0 | 7.0 | 0.00 | 0.00 | 0.00 | 36 | 1017.5 |
| 20260504175522 | 87 | 142 | 0.0 | 7.0 | 0.00 | 0.00 | 0.00 | 38 | 1017.5 |
| 20260504175022 | 86 | 103 | 3.0 | 9.0 | 0.00 | 0.00 | 0.00 | 37 | 1017.7 |
| 20260504174541 | 86 | 214 | 3.0 | 9.0 | 0.00 | 0.00 | 0.00 | 38 | 1017.5 |
| 20260504174022 | 86 | 57 | 1.0 | 8.0 | 0.00 | 0.00 | 0.00 | 38 | 1017.7 |
| 20260504173521 | 86 | 74 | 3.0 | 8.0 | 0.00 | 0.00 | 0.00 | 38 | 1017.8 |
| 20260504173041 | 86 | 0 | 0.0 | 7.0 | 0.00 | 0.00 | 0.00 | 40 | 1017.8 |
| 20260504172523 | 85 | 0 | 0.0 | 7.0 | 0.00 | 0.00 | 0.00 | 41 | 1017.8 |
| 20260504172022 | 85 | 0 | 1.0 | 7.0 | 0.00 | 0.00 | 0.00 | 40 | 1017.8 |
| 20260504171538 | 85 | 0 | 1.0 | 7.0 | 0.00 | 0.00 | 0.00 | 40 | 1017.9 |
| 20260504171027 | 85 | 79 | 2.0 | 7.0 | 0.00 | 0.00 | 0.00 | 39 | 1018.0 |
| 20260504170524 | 85 | 100 | 0.0 | 6.0 | 0.00 | 0.00 | 0.00 | 39 | 1018.1 |
| 20260504151022 | 81 | 74 | 1.0 | 8.0 | 0.00 | 0.00 | 0.00 | 49 | 1018.8 |
| 20260504150521 | 81 | 82 | 3.0 | 11.0 | 0.00 | 0.00 | 0.00 | 50 | 1018.9 |
| 20260504141022 | 77 | 109 | 2.0 | 11.0 | 0.00 | 0.00 | 0.00 | 56 | 1018.7 |
| 20260504140521 | 77 | 32 | 4.0 | 8.0 | 0.00 | 0.00 | 0.00 | 55 | 1018.8 |
| 20260504130525 | 71 | 55 | 2.0 | 8.0 | 0.00 | 0.00 | 0.00 | 70 | 1018.5 |
| 20260504110521 | 58 | 0 | 0.0 | 2.0 | 0.00 | 0.00 | 0.00 | 91 | 1017.9 |
| 20260504100521 | 58 | 0 | 0.0 | 1.0 | 0.00 | 0.00 | 0.00 | 90 | 1017.7 |
| 20260504081538 | 60 | 0 | 0.0 | 0.0 | 0.00 | 0.00 | 0.00 | 85 | 1017.8 |
| 20260504081021 | 60 | 0 | 0.0 | 0.0 | 0.00 | 0.00 | 0.00 | 85 | 1017.8 |
| 20260504080522 | 60 | 0 | 0.0 | 0.0 | 0.00 | 0.00 | 0.00 | 85 | 1017.8 |
| 20260504050522 | 67 | 71 | 0.0 | 1.0 | 0.00 | 0.00 | 0.00 | 75 | 1018.4 |
| 20260504045521 | 67 | 0 | 0.0 | 2.0 | 0.00 | 0.00 | 0.00 | 74 | 1018.6 |
| 20260504045021 | 67 | 71 | 0.0 | 4.0 | 0.00 | 0.00 | 0.00 | 74 | 1018.5 |
| 20260504044536 | 67 | 0 | 0.0 | 4.0 | 0.00 | 0.00 | 0.00 | 74 | 1018.5 |
| 20260504044023 | 67 | 0 | 0.0 | 4.0 | 0.00 | 0.00 | 0.00 | 74 | 1018.7 |
| 20260504043521 | 68 | 0 | 0.0 | 4.0 | 0.00 | 0.00 | 0.00 | 74 | 1018.7 |
| 20260504043036 | 68 | 74 | 0.0 | 3.0 | 0.00 | 0.00 | 0.00 | 74 | 1018.7 |
| 20260504042521 | 68 | 0 | 0.0 | 3.0 | 0.00 | 0.00 | 0.00 | 73 | 1018.7 |
| 20260504042021 | 68 | 0 | 0.0 | 4.0 | 0.00 | 0.00 | 0.00 | 73 | 1018.8 |
| 20260504041542 | 68 | 133 | 0.0 | 4.0 | 0.00 | 0.00 | 0.00 | 73 | 1018.9 |
| 20260504041023 | 69 | 0 | 0.0 | 2.0 | 0.00 | 0.00 | 0.00 | 72 | 1019.0 |
| 20260504040522 | 69 | 88 | 0.0 | 2.0 | 0.00 | 0.00 | 0.00 | 72 | 1018.9 |
| 20260504040042 | 69 | 0 | 0.0 | 2.0 | 0.00 | 0.00 | 0.00 | 72 | 1019.1 |
| 20260504035522 | 69 | 0 | 0.0 | 3.0 | 0.00 | 0.00 | 0.00 | 71 | 1018.9 |
| 20260504035021 | 69 | 0 | 0.0 | 3.0 | 0.00 | 0.00 | 0.00 | 71 | 1019.1 |
| 20260504034544 | 69 | 0 | 0.0 | 3.0 | 0.00 | 0.00 | 0.00 | 71 | 1019.1 |
| 20260504034021 | 70 | 0 | 0.0 | 3.0 | 0.00 | 0.00 | 0.00 | 70 | 1019.1 |
| 20260504033521 | 70 | 141 | 0.0 | 3.0 | 0.00 | 0.00 | 0.00 | 70 | 1019.1 |
| 20260504033038 | 70 | 0 | 0.0 | 6.0 | 0.00 | 0.00 | 0.00 | 70 | 1019.1 |
| 20260504032521 | 70 | 130 | 1.0 | 6.0 | 0.00 | 0.00 | 0.00 | 70 | 1018.9 |
| 20260504032024 | 70 | 98 | 1.0 | 5.0 | 0.00 | 0.00 | 0.00 | 69 | 1018.9 |
| 20260504031541 | 70 | 81 | 1.0 | 5.0 | 0.00 | 0.00 | 0.00 | 69 | 1018.9 |
| 20260504031021 | 70 | 0 | 0.0 | 4.0 | 0.00 | 0.00 | 0.00 | 69 | 1018.8 |
| 20260504030521 | 70 | 81 | 1.0 | 9.0 | 0.00 | 0.00 | 0.00 | 69 | 1018.8 |
| 20260504030037 | 70 | 69 | 1.0 | 9.0 | 0.00 | 0.00 | 0.00 | 69 | 1018.7 |
| 20260504025521 | 70 | 101 | 1.0 | 8.0 | 0.00 | 0.00 | 0.00 | 69 | 1018.6 |
| 20260504025021 | 70 | 81 | 2.0 | 7.0 | 0.00 | 0.00 | 0.00 | 70 | 1018.6 |
| 20260504024546 | 69 | 92 | 2.0 | 7.0 | 0.00 | 0.00 | 0.00 | 70 | 1018.6 |
| 20260504024021 | 69 | 0 | 2.0 | 6.0 | 0.00 | 0.00 | 0.00 | 71 | 1018.6 |
| 20260504023522 | 68 | 0 | 0.0 | 3.0 | 0.00 | 0.00 | 0.00 | 72 | 1018.5 |
| 20260504023040 | 68 | 0 | 0.0 | 1.0 | 0.00 | 0.00 | 0.00 | 73 | 1018.5 |
| 20260504022522 | 68 | 0 | 0.0 | 1.0 | 0.00 | 0.00 | 0.00 | 73 | 1018.3 |
| 20260504022021 | 68 | 0 | 0.0 | 1.0 | 0.00 | 0.00 | 0.00 | 73 | 1018.3 |
| 20260504021539 | 68 | 0 | 0.0 | 3.0 | 0.00 | 0.00 | 0.00 | 73 | 1018.3 |
| 20260504021021 | 68 | 0 | 0.0 | 3.0 | 0.00 | 0.00 | 0.00 | 73 | 1018.3 |
| 20260504020521 | 68 | 0 | 0.0 | 2.0 | 0.00 | 0.00 | 0.00 | 73 | 1018.2 |
| 20260504020041 | 68 | 0 | 0.0 | 2.0 | 0.00 | 0.00 | 0.00 | 73 | 1018.1 |
| 20260504015521 | 68 | 0 | 0.0 | 1.0 | 0.00 | 0.00 | 0.00 | 72 | 1018.2 |
| 20260504015022 | 69 | 0 | 0.0 | 1.0 | 0.00 | 0.00 | 0.00 | 72 | 1018.2 |
| 20260504014538 | 69 | 0 | 0.0 | 1.0 | 0.00 | 0.00 | 0.00 | 71 | 1018.1 |
| 20260504014021 | 69 | 0 | 0.0 | 1.0 | 0.00 | 0.00 | 0.00 | 71 | 1018.0 |
| 20260504013521 | 69 | 0 | 0.0 | 0.0 | 0.00 | 0.00 | 0.00 | 70 | 1017.9 |
| 20260504013054 | 69 | 0 | 0.0 | 0.0 | 0.00 | 0.00 | 0.00 | 70 | 1017.9 |
| 20260504012521 | 70 | 0 | 0.0 | 0.0 | 0.00 | 0.00 | 0.00 | 70 | 1017.8 |
| 20260504012021 | 70 | 0 | 0.0 | 0.0 | 0.00 | 0.00 | 0.00 | 70 | 1017.7 |
| 20260504011539 | 70 | 0 | 0.0 | 1.0 | 0.00 | 0.00 | 0.00 | 70 | 1017.6 |
| 20260504011024 | 70 | 0 | 0.0 | 1.0 | 0.00 | 0.00 | 0.00 | 69 | 1017.4 |
| 20260504010520 | 70 | 0 | 0.0 | 0.0 | 0.00 | 0.00 | 0.00 | 69 | 1017.3 |
| 20260504010041 | 71 | 0 | 0.0 | 0.0 | 0.00 | 0.00 | 0.00 | 69 | 1017.3 |
| 20260504005522 | 71 | 0 | 0.0 | 0.0 | 0.00 | 0.00 | 0.00 | 68 | 1017.3 |
| 20260504005024 | 71 | 0 | 0.0 | 0.0 | 0.00 | 0.00 | 0.00 | 67 | 1017.2 |
| 20260504004538 | 71 | 0 | 0.0 | 0.0 | 0.00 | 0.00 | 0.00 | 66 | 1017.1 |
| 20260504004022 | 72 | 0 | 0.0 | 0.0 | 0.00 | 0.00 | 0.00 | 67 | 1017.1 |
| 20260504003521 | 72 | 0 | 0.0 | 0.0 | 0.00 | 0.00 | 0.00 | 66 | 1017.1 |
| 20260504003037 | 72 | 0 | 0.0 | 0.0 | 0.00 | 0.00 | 0.00 | 65 | 1016.9 |
| 20260504002522 | 72 | 0 | 0.0 | 1.0 | 0.00 | 0.00 | 0.00 | 65 | 1017.0 |
| 20260504002021 | 72 | 0 | 0.0 | 1.0 | 0.00 | 0.00 | 0.00 | 65 | 1016.9 |
| 20260504001546 | 73 | 0 | 0.0 | 1.0 | 0.00 | 0.00 | 0.00 | 65 | 1016.8 |
| 20260504001021 | 73 | 0 | 0.0 | 1.0 | 0.00 | 0.00 | 0.00 | 64 | 1016.9 |
| 20260504000526 | 73 | 0 | 0.0 | 1.0 | 0.00 | 0.00 | 0.00 | 64 | 1017.0 |
| 20260504000040 | 73 | 0 | 0.0 | 2.0 | 0.00 | 0.00 | 0.00 | 64 | 1016.8 |
| 20260503235521 | 73 | 0 | 0.0 | 2.0 | 0.00 | 0.00 | 0.00 | 64 | 1016.9 |
| 20260503235021 | 74 | 0 | 0.0 | 2.0 | 0.00 | 0.00 | 0.00 | 63 | 1016.8 |
| 20260503234539 | 74 | 327 | 0.0 | 2.0 | 0.00 | 0.00 | 0.00 | 63 | 1016.8 |
| 20260503234021 | 74 | 0 | 0.0 | 3.0 | 0.00 | 0.00 | 0.00 | 63 | 1016.8 |
| 20260503233525 | 74 | 327 | 0.0 | 3.0 | 0.00 | 0.00 | 0.00 | 62 | 1016.8 |
| 20260503233037 | 75 | 327 | 0.0 | 3.0 | 0.00 | 0.00 | 0.00 | 61 | 1016.8 |
| 20260503232520 | 75 | 327 | 1.0 | 4.0 | 0.00 | 0.00 | 0.00 | 61 | 1016.7 |
| 20260503232021 | 75 | 323 | 1.0 | 4.0 | 0.00 | 0.00 | 0.00 | 60 | 1016.6 |